Time;durP1;ratioP1;P1;durP2;ratioP2;P2;SDS_P1;SDS_P2;PMS_P1;PMS_P2;Temp;Humidity;BMP_temperature;BMP_pressure;BME280_temperature;BME280_humidity;BME280_pressure;Samples;Min_cycle;Max_cycle;Signal;HPM_P1;HPM_P2
2022/08/02 00:00:07;;;;;;;6.00;4.80;;;22.00;99.90;;;;;;5115680;28;20391;-78
2022/08/02 00:02:33;;;;;;;7.82;5.65;;;22.00;99.90;;;;;;5115224;28;20235;-78
2022/08/02 00:04:58;;;;;;;6.50;4.93;;;22.00;99.90;;;;;;5115776;28;20538;-78
2022/08/02 00:07:24;;;;;;;7.33;5.47;;;22.00;99.90;;;;;;5115454;28;20502;-78
2022/08/02 00:09:49;;;;;;;9.23;5.53;;;22.10;99.90;;;;;;5114543;28;20038;-79
2022/08/02 00:12:16;;;;;;;10.30;5.33;;;22.00;99.90;;;;;;5115872;28;20488;-79
2022/08/02 00:14:41;;;;;;;9.32;5.00;;;22.00;99.90;;;;;;5116022;28;20058;-78
2022/08/02 00:17:07;;;;;;;7.07;5.20;;;22.00;99.90;;;;;;5115338;28;20120;-79
2022/08/02 00:19:33;;;;;;;7.20;4.93;;;22.00;99.90;;;;;;5115804;28;20114;-79
2022/08/02 00:21:58;;;;;;;5.57;4.73;;;22.00;99.90;;;;;;5115528;28;20081;-80
2022/08/02 00:24:24;;;;;;;6.60;5.20;;;22.00;99.90;;;;;;5114884;28;20032;-78
2022/08/02 00:26:49;;;;;;;9.17;5.30;;;22.00;99.90;;;;;;5115345;28;20090;-79
2022/08/02 00:29:15;;;;;;;7.17;5.70;;;21.90;99.90;;;;;;5113785;28;20514;-78
2022/08/02 00:31:41;;;;;;;8.50;5.70;;;21.90;99.90;;;;;;5114444;28;20054;-79
2022/08/02 00:34:06;;;;;;;7.80;5.90;;;21.90;99.90;;;;;;5114918;28;20025;-79
2022/08/02 00:36:32;;;;;;;7.63;5.50;;;21.90;99.90;;;;;;5113376;28;20115;-78
2022/08/02 00:38:57;;;;;;;7.87;5.60;;;21.90;99.90;;;;;;5114698;28;20077;-80
2022/08/02 00:41:23;;;;;;;9.13;6.20;;;21.90;99.90;;;;;;5114458;28;20034;-79
2022/08/02 00:43:50;;;;;;;8.37;6.70;;;21.90;99.90;;;;;;5114336;28;20466;-79
2022/08/02 00:46:17;;;;;;;7.80;6.40;;;21.90;99.90;;;;;;5114212;28;20110;-78
2022/08/02 00:48:42;;;;;;;8.57;6.68;;;21.90;99.90;;;;;;5112643;28;20483;-80
2022/08/02 00:51:08;;;;;;;8.67;6.43;;;21.90;99.90;;;;;;5112452;28;20165;-78
2022/08/02 00:53:34;;;;;;;9.40;6.30;;;21.90;99.90;;;;;;5114071;28;20481;-80
2022/08/02 00:56:00;;;;;;;8.27;6.70;;;21.80;99.90;;;;;;5113777;28;20063;-79
2022/08/02 00:58:26;;;;;;;8.45;7.07;;;21.80;99.90;;;;;;5113839;28;20275;-79
2022/08/02 01:00:52;;;;;;;9.25;6.78;;;21.80;99.90;;;;;;5114157;28;20024;-79
2022/08/02 01:03:17;;;;;;;9.50;7.40;;;21.80;99.90;;;;;;5112480;28;20118;-79
2022/08/02 01:05:43;;;;;;;9.57;7.00;;;21.70;99.90;;;;;;5113880;28;20368;-79
2022/08/02 01:08:09;;;;;;;9.17;7.27;;;21.70;99.90;;;;;;5114316;28;20042;-79
2022/08/02 01:10:35;;;;;;;8.77;6.68;;;21.70;99.90;;;;;;5114555;27;20421;-80
2022/08/02 01:13:01;;;;;;;9.93;7.27;;;21.70;99.90;;;;;;5112984;28;20046;-79
2022/08/02 01:15:27;;;;;;;9.27;7.60;;;21.70;99.90;;;;;;5114312;28;20077;-80
2022/08/02 01:18:04;;;;;;;10.82;8.00;;;21.70;99.90;;;;;;5112985;28;20035;-79
2022/08/02 01:20:45;;;;;;;9.80;7.25;;;21.70;99.90;;;;;;5114017;28;20035;-78
2022/08/02 01:23:24;;;;;;;9.05;7.47;;;21.70;99.90;;;;;;5112994;28;20536;-79
2022/08/02 01:25:56;;;;;;;10.52;7.50;;;21.70;99.90;;;;;;5113267;28;20020;-77
2022/08/02 01:28:47;;;;;;;9.27;7.00;;;21.70;99.90;;;;;;5112705;28;20383;-78
2022/08/02 01:31:27;;;;;;;9.98;7.55;;;21.60;99.90;;;;;;5114023;28;20027;-79
2022/08/02 01:34:04;;;;;;;12.90;7.07;;;21.60;99.90;;;;;;5114499;28;20034;-78
2022/08/02 01:36:36;;;;;;;10.02;7.30;;;21.60;99.90;;;;;;5112302;28;20058;-78
2022/08/02 01:39:04;;;;;;;12.48;7.38;;;21.60;99.90;;;;;;5113523;28;20042;-78
2022/08/02 01:41:32;;;;;;;10.25;7.55;;;21.60;99.90;;;;;;5113284;28;20023;-79
2022/08/02 01:44:00;;;;;;;8.60;7.28;;;21.50;99.90;;;;;;5113242;28;20045;-78
2022/08/02 01:46:28;;;;;;;10.27;7.60;;;21.60;99.90;;;;;;5111874;28;20126;-79
2022/08/02 01:48:58;;;;;;;9.77;7.20;;;21.60;99.90;;;;;;5111535;28;20035;-79
2022/08/02 01:54:15;;;;;;;9.88;7.57;;;21.40;99.90;;;;;;5112603;28;20058;-79
2022/08/02 01:56:42;;;;;;;10.32;7.85;;;21.40;99.90;;;;;;5112971;28;20027;-79
2022/08/02 01:59:12;;;;;;;13.77;12.43;;;21.30;99.90;;;;;;5113163;28;20024;-80
2022/08/02 02:01:40;;;;;;;54.28;11.80;;;21.20;99.90;;;;;;5112826;28;20330;-79
2022/08/02 02:04:07;;;;;;;8.63;7.13;;;21.10;99.90;;;;;;5111066;28;20613;-79
2022/08/02 02:06:35;;;;;;;8.73;7.32;;;21.10;99.90;;;;;;5110537;28;20030;-79
2022/08/02 02:09:02;;;;;;;9.55;7.82;;;21.10;99.90;;;;;;5112663;28;20047;-78
2022/08/02 02:11:28;;;;;;;;;;;21.10;99.90;;;;;;5111340;28;20048;-78
2022/08/02 02:13:56;;;;;;;11.70;8.48;;;21.00;99.90;;;;;;5111678;28;19911;-78
2022/08/02 02:16:22;;;;;;;9.30;7.05;;;21.10;99.90;;;;;;5111468;28;20408;-78
2022/08/02 02:18:50;;;;;;;9.35;7.57;;;21.10;99.90;;;;;;5111631;28;20054;-79
2022/08/02 02:21:16;;;;;;;12.20;7.85;;;21.10;99.90;;;;;;5111421;28;20032;-79
2022/08/02 02:23:42;;;;;;;9.67;7.80;;;21.10;99.90;;;;;;5113201;28;20406;-78
2022/08/02 02:26:11;;;;;;;10.40;7.20;;;21.10;99.90;;;;;;5113114;28;20024;-81
2022/08/02 02:28:38;;;;;;;10.57;7.95;;;21.10;99.90;;;;;;5112606;28;20032;-78
2022/08/02 02:31:08;;;;;;;11.52;7.70;;;21.00;99.90;;;;;;5110974;28;20038;-79
2022/08/02 02:33:39;;;;;;;11.90;7.38;;;21.00;99.90;;;;;;5111092;28;20030;-78
2022/08/02 02:36:07;;;;;;;8.75;6.68;;;21.00;99.90;;;;;;5112360;28;20080;-79
2022/08/02 02:38:34;;;;;;;10.05;7.18;;;21.00;99.90;;;;;;5112229;28;20049;-78
2022/08/02 02:41:03;;;;;;;11.07;7.32;;;20.90;99.90;;;;;;5110982;28;20024;-78
2022/08/02 02:43:31;;;;;;;9.75;7.93;;;20.90;99.90;;;;;;5110936;28;20031;-79
2022/08/02 02:45:57;;;;;;;10.20;7.20;;;20.90;99.90;;;;;;5110246;28;20085;-79
2022/08/02 02:48:25;;;;;;;10.27;7.53;;;20.80;99.90;;;;;;5110267;28;20108;-78
2022/08/02 02:50:52;;;;;;;10.13;7.60;;;20.80;99.90;;;;;;5111435;28;20032;-79
2022/08/02 02:53:18;;;;;;;9.68;7.78;;;20.80;99.90;;;;;;5111470;28;20027;-80
2022/08/02 02:55:45;;;;;;;10.30;7.18;;;20.80;99.90;;;;;;5111323;28;20478;-79
2022/08/02 02:58:12;;;;;;;9.93;7.68;;;20.80;99.90;;;;;;5111302;28;20491;-79
2022/08/02 03:03:23;;;;;;;12.65;8.25;;;20.80;99.90;;;;;;5111515;28;20092;-79
2022/08/02 03:05:49;;;;;;;8.52;6.95;;;20.80;99.90;;;;;;5111577;28;20058;-78
2022/08/02 03:08:15;;;;;;;11.82;7.65;;;20.80;99.90;;;;;;5111153;28;20537;-79
2022/08/02 03:10:43;;;;;;;12.47;8.60;;;20.70;99.90;;;;;;5111047;28;20111;-79
2022/08/02 03:13:09;;;;;;;13.77;9.48;;;20.80;99.90;;;;;;5109581;28;20505;-79
2022/08/02 03:15:37;;;;;;;9.18;7.63;;;20.70;99.90;;;;;;5110001;28;20095;-79
2022/08/02 03:18:02;;;;;;;10.90;7.63;;;20.70;99.90;;;;;;5108940;28;20044;-79
2022/08/02 03:20:28;;;;;;;8.20;7.00;;;20.70;99.90;;;;;;5111520;28;20386;-79
2022/08/02 03:22:53;;;;;;;9.73;7.53;;;20.70;99.90;;;;;;5111611;28;20379;-79
2022/08/02 03:25:19;;;;;;;10.67;6.80;;;20.60;99.90;;;;;;5110122;28;20027;-79
2022/08/02 03:27:45;;;;;;;15.60;7.23;;;20.70;99.90;;;;;;5111316;28;20531;-79
2022/08/02 03:30:12;;;;;;;8.13;6.50;;;20.70;99.90;;;;;;5111349;28;20387;-79
2022/08/02 03:32:40;;;;;;;7.63;6.47;;;20.70;99.90;;;;;;5110976;28;20116;-78
2022/08/02 03:35:10;;;;;;;8.73;6.43;;;20.80;99.90;;;;;;5109562;28;20038;-78
2022/08/02 03:37:36;;;;;;;8.50;7.05;;;20.80;99.90;;;;;;5110891;28;20028;-78
2022/08/02 03:40:05;;;;;;;8.15;6.53;;;20.70;99.90;;;;;;5109739;28;20023;-78
2022/08/02 03:42:31;;;;;;;10.73;6.85;;;20.70;99.90;;;;;;5109635;28;20032;-80
2022/08/02 03:44:59;;;;;;;10.17;6.73;;;20.70;99.90;;;;;;5110976;28;20027;-79
2022/08/02 03:47:26;;;;;;;8.30;6.22;;;20.70;99.90;;;;;;5110918;28;20032;-79
2022/08/02 03:49:52;;;;;;;8.40;7.45;;;20.60;99.90;;;;;;5109621;28;20474;-80
2022/08/02 03:52:18;;;;;;;9.30;6.93;;;20.60;99.90;;;;;;5109661;28;20024;-79
2022/08/02 03:54:44;;;;;;;9.75;7.13;;;20.60;99.90;;;;;;5110581;28;20770;-79
2022/08/02 03:57:10;;;;;;;10.97;6.70;;;20.50;99.90;;;;;;5109049;28;20089;-79
2022/08/02 03:59:44;;;;;;;15.23;8.40;;;20.50;99.90;;;;;;5111258;28;20024;-79
2022/08/02 04:02:11;;;;;;;11.32;7.50;;;20.50;99.90;;;;;;5110779;28;20028;-78
2022/08/02 04:04:36;;;;;;;;;;;20.50;99.90;;;;;;5110053;28;20027;-79
2022/08/02 04:07:02;;;;;;;10.27;8.00;;;20.40;99.90;;;;;;5110712;28;19925;-79
2022/08/02 04:09:28;;;;;;;9.65;7.70;;;20.50;99.90;;;;;;5111218;28;20097;-79
2022/08/02 04:11:53;;;;;;;10.47;8.53;;;20.40;99.90;;;;;;5110709;28;20040;-80
2022/08/02 04:14:19;;;;;;;12.50;8.40;;;20.40;99.90;;;;;;5109423;28;20027;-79
2022/08/02 04:16:52;;;;;;;10.82;7.75;;;20.50;99.90;;;;;;5109413;28;20028;-79
2022/08/02 04:19:27;;;;;;;9.30;8.18;;;20.50;99.90;;;;;;5111418;28;20078;-79
2022/08/02 04:21:54;;;;;;;9.13;8.07;;;20.50;99.90;;;;;;5111457;28;20023;-79
2022/08/02 04:24:25;;;;;;;10.10;8.10;;;20.40;99.90;;;;;;5110901;28;20485;-79
2022/08/02 04:26:54;;;;;;;10.68;8.02;;;20.50;99.90;;;;;;5111054;28;20023;-79
2022/08/02 04:29:21;;;;;;;11.55;8.77;;;20.50;99.90;;;;;;5113002;28;20039;-78
2022/08/02 04:31:47;;;;;;;9.25;8.20;;;20.40;99.90;;;;;;5114526;28;20054;-79
2022/08/02 04:34:13;;;;;;;13.20;8.55;;;20.40;99.90;;;;;;5113017;28;20031;-79
2022/08/02 04:36:39;;;;;;;12.40;8.40;;;20.40;99.90;;;;;;5114504;28;20035;-79
2022/08/02 04:39:05;;;;;;;9.77;8.35;;;20.40;99.90;;;;;;5113094;28;20547;-79
2022/08/02 04:41:45;;;;;;;8.83;7.27;;;20.30;99.90;;;;;;5114768;27;20028;-79
2022/08/02 04:44:11;;;;;;;9.63;7.43;;;20.20;99.90;;;;;;5114691;28;20485;-79
2022/08/02 04:46:38;;;;;;;11.20;7.50;;;20.20;99.90;;;;;;5114173;28;20020;-79
2022/08/02 04:49:04;;;;;;;10.05;7.68;;;20.10;99.90;;;;;;5112616;28;20112;-79
2022/08/02 04:51:29;;;;;;;9.55;6.57;;;20.00;99.90;;;;;;5112875;28;20475;-80
2022/08/02 04:53:55;;;;;;;8.50;6.83;;;20.00;99.90;;;;;;5113600;28;20107;-79
2022/08/02 04:56:21;;;;;;;11.30;6.93;;;19.80;99.90;;;;;;5113868;28;20067;-78
2022/08/02 04:58:46;;;;;;;8.03;6.63;;;19.80;99.90;;;;;;5112357;28;20028;-79
2022/08/02 05:01:12;;;;;;;10.00;7.23;;;19.80;99.90;;;;;;5114910;28;20051;-79
2022/08/02 05:03:37;;;;;;;8.53;6.80;;;19.70;99.90;;;;;;5114614;28;20020;-80
2022/08/02 05:06:03;;;;;;;8.30;6.20;;;19.70;99.90;;;;;;5113805;28;20471;-79
2022/08/02 05:08:29;;;;;;;7.90;6.53;;;19.60;99.90;;;;;;5113606;28;20042;-79
2022/08/02 05:10:54;;;;;;;10.47;6.20;;;19.60;99.90;;;;;;5113760;28;20444;-79
2022/08/02 05:13:20;;;;;;;9.67;6.93;;;19.50;99.90;;;;;;5114038;28;20463;-79
2022/08/02 05:15:51;;;;;;;10.17;7.10;;;19.50;99.90;;;;;;5113715;28;20105;-79
2022/08/02 05:18:17;;;;;;;8.68;5.82;;;19.50;99.90;;;;;;5113735;28;20032;-79
2022/08/02 05:20:43;;;;;;;9.60;6.37;;;19.50;99.90;;;;;;5113545;28;20027;-79
2022/08/02 05:23:08;;;;;;;10.30;6.57;;;19.40;99.90;;;;;;5114100;28;20032;-79
2022/08/02 05:25:34;;;;;;;7.50;6.37;;;19.40;99.90;;;;;;5113570;28;20027;-79
2022/08/02 05:27:59;;;;;;;8.33;6.30;;;19.40;99.90;;;;;;5113505;28;20378;-79
2022/08/02 05:30:25;;;;;;;8.00;6.13;;;19.40;99.90;;;;;;5113745;28;20063;-80
2022/08/02 05:32:51;;;;;;;8.90;6.97;;;19.30;99.90;;;;;;5113767;28;20103;-80
2022/08/02 05:35:21;;;;;;;8.20;6.30;;;19.30;99.90;;;;;;5112631;28;20085;-79
2022/08/02 05:37:48;;;;;;;9.40;6.88;;;19.30;99.90;;;;;;5113074;28;20367;-80
2022/08/02 05:40:14;;;;;;;9.63;7.30;;;19.20;99.90;;;;;;5112828;28;20346;-79
2022/08/02 05:42:40;;;;;;;9.02;7.22;;;19.20;99.90;;;;;;5111737;28;20055;-78
2022/08/02 05:45:07;;;;;;;9.55;7.63;;;19.20;99.90;;;;;;5113220;28;20032;-78
2022/08/02 05:47:32;;;;;;;;;;;19.10;99.90;;;;;;5112459;28;20114;-78
2022/08/02 05:49:59;;;;;;;11.35;6.85;;;19.10;99.90;;;;;;5111698;28;20003;-79
2022/08/02 05:52:51;;;;;;;10.15;7.25;;;19.00;99.90;;;;;;5111662;28;20036;-78
2022/08/02 05:55:31;;;;;;;11.25;7.63;;;19.00;99.90;;;;;;5106819;28;20196;-78
2022/08/02 05:58:25;;;;;;;10.60;7.22;;;19.00;99.90;;;;;;5113297;28;20046;-79
2022/08/02 06:00:54;;;;;;;10.60;7.45;;;19.00;99.90;;;;;;5108150;28;20036;-80
2022/08/02 06:03:24;;;;;;;9.65;7.38;;;18.90;99.90;;;;;;5112862;28;20077;-79
2022/08/02 06:06:04;;;;;;;13.75;6.90;;;18.90;99.90;;;;;;5111721;28;20118;-79
2022/08/02 06:08:43;;;;;;;9.13;7.10;;;18.90;99.90;;;;;;5112756;28;20519;-79
2022/08/02 06:11:14;;;;;;;9.95;6.72;;;18.90;99.90;;;;;;5111232;28;20402;-79
2022/08/02 06:13:44;;;;;;;9.00;6.80;;;18.90;99.90;;;;;;5113165;28;20024;-79
2022/08/02 06:16:10;;;;;;;11.43;7.85;;;18.90;99.90;;;;;;5112409;28;20024;-78
2022/08/02 06:18:36;;;;;;;8.33;7.40;;;19.10;99.90;;;;;;5112782;28;20031;-79
2022/08/02 06:21:03;;;;;;;9.60;7.43;;;19.00;99.90;;;;;;5110993;28;20102;-79
2022/08/02 06:23:30;;;;;;;8.52;6.65;;;19.10;99.90;;;;;;5110642;28;20031;-78
2022/08/02 06:25:57;;;;;;;11.50;8.10;;;19.10;99.90;;;;;;5110469;28;20610;-78
2022/08/02 06:28:23;;;;;;;8.13;7.30;;;19.10;99.90;;;;;;5110417;28;20028;-79
2022/08/02 06:30:50;;;;;;;8.35;6.90;;;19.20;99.90;;;;;;5111749;28;20496;-79
2022/08/02 06:33:15;;;;;;;9.90;7.35;;;19.20;99.90;;;;;;5111882;28;20466;-80
2022/08/02 06:36:03;;;;;;;9.43;6.73;;;19.20;99.90;;;;;;5111897;28;20035;-79
2022/08/02 06:38:43;;;;;;;9.32;6.57;;;19.20;99.90;;;;;;5110654;28;20074;-79
2022/08/02 06:41:11;;;;;;;9.10;6.72;;;19.30;99.90;;;;;;5110675;28;20383;-78
2022/08/02 06:43:52;;;;;;;9.00;5.68;;;19.30;99.90;;;;;;5112036;28;20028;-79
2022/08/02 06:46:18;;;;;;;9.52;6.68;;;19.40;99.90;;;;;;5112692;28;20051;-79
2022/08/02 06:48:44;;;;;;;7.88;6.68;;;19.40;99.90;;;;;;5112143;28;20067;-79
2022/08/02 06:51:11;;;;;;;8.53;6.30;;;19.50;99.90;;;;;;5110987;28;20035;-79
2022/08/02 06:53:36;;;;;;;8.27;6.05;;;19.50;99.90;;;;;;5112264;28;20417;-79
2022/08/02 06:56:02;;;;;;;8.80;5.80;;;19.50;99.90;;;;;;5111685;28;20077;-79
2022/08/02 06:58:28;;;;;;;7.87;5.70;;;19.50;99.90;;;;;;5110545;28;20063;-79
2022/08/02 07:00:54;;;;;;;9.93;6.57;;;19.50;99.90;;;;;;5112383;28;20024;-79
2022/08/02 07:03:19;;;;;;;8.27;5.77;;;19.40;99.90;;;;;;5111809;28;20031;-80
2022/08/02 07:05:47;;;;;;;7.17;6.27;;;19.60;99.90;;;;;;5112314;28;20054;-79
2022/08/02 07:08:14;;;;;;;6.68;5.00;;;19.40;99.90;;;;;;5110301;28;20133;-79
2022/08/02 07:10:40;;;;;;;;;;;19.40;99.90;;;;;;5112676;28;20035;-79
2022/08/02 07:13:05;;;;;;;7.40;5.50;;;19.50;99.90;;;;;;5110447;28;19915;-79
2022/08/02 07:15:31;;;;;;;9.33;6.50;;;19.40;99.90;;;;;;5111724;28;20482;-80
2022/08/02 07:17:57;;;;;;;7.33;5.30;;;19.40;99.90;;;;;;5111756;28;20043;-80
2022/08/02 07:20:23;;;;;;;6.90;5.30;;;19.40;99.90;;;;;;5111770;28;20428;-70
2022/08/02 07:22:48;;;;;;;8.13;5.70;;;19.30;99.90;;;;;;5110247;28;20027;-67
2022/08/02 07:25:14;;;;;;;10.43;6.13;;;19.30;99.90;;;;;;5102990;28;20028;-67
2022/08/02 07:27:40;;;;;;;7.82;5.50;;;19.40;99.90;;;;;;5103612;28;20387;-68
2022/08/02 07:30:06;;;;;;;8.50;5.50;;;19.40;99.90;;;;;;5109852;28;20035;-67
2022/08/02 07:32:32;;;;;;;9.13;5.60;;;19.40;99.90;;;;;;5101265;28;20111;-68
2022/08/02 07:34:59;;;;;;;7.60;5.77;;;19.30;99.90;;;;;;5110534;28;20115;-68
2022/08/02 07:37:28;;;;;;;9.88;5.90;;;19.40;99.90;;;;;;5110082;28;20123;-69
2022/08/02 07:39:54;;;;;;;7.70;5.75;;;19.40;99.90;;;;;;5108906;28;20452;-68
2022/08/02 07:42:20;;;;;;;8.27;5.67;;;19.40;99.90;;;;;;5100506;28;20107;-70
2022/08/02 07:44:46;;;;;;;9.50;7.77;;;19.40;99.90;;;;;;5090687;28;20020;-70
2022/08/02 07:47:11;;;;;;;7.70;6.00;;;19.30;99.90;;;;;;5090066;28;20269;-69
2022/08/02 07:49:37;;;;;;;7.00;6.00;;;19.30;99.90;;;;;;5090479;28;20028;-69
2022/08/02 07:52:03;;;;;;;10.53;6.43;;;19.30;99.90;;;;;;5090069;28;20086;-69
2022/08/02 07:54:29;;;;;;;7.85;6.20;;;19.30;99.90;;;;;;5090047;28;20044;-69
2022/08/02 07:56:55;;;;;;;7.83;6.20;;;19.30;99.90;;;;;;5089954;28;20197;-68
2022/08/02 07:59:21;;;;;;;9.10;6.78;;;19.30;99.90;;;;;;5099853;28;20036;-68
2022/08/02 08:01:48;;;;;;;9.45;6.30;;;19.30;99.90;;;;;;5110173;28;20413;-69
2022/08/02 08:04:14;;;;;;;11.77;6.70;;;19.30;99.90;;;;;;5111931;28;20140;-69
2022/08/02 08:06:40;;;;;;;10.40;6.60;;;19.20;99.90;;;;;;5114346;27;20081;-68
2022/08/02 08:09:05;;;;;;;9.60;6.80;;;19.30;99.90;;;;;;5114346;28;20036;-69
2022/08/02 08:11:31;;;;;;;10.80;7.53;;;19.20;99.90;;;;;;5114498;28;20064;-69
2022/08/02 08:13:56;;;;;;;14.57;9.23;;;19.20;99.90;;;;;;5114743;28;20036;-69
2022/08/02 08:16:24;;;;;;;11.60;8.87;;;19.10;99.90;;;;;;5114305;28;20303;-70
2022/08/02 08:18:50;;;;;;;11.38;8.10;;;19.30;99.90;;;;;;5114365;28;20057;-70
2022/08/02 08:21:16;;;;;;;10.82;8.10;;;19.20;99.90;;;;;;5113613;27;20024;-68
2022/08/02 08:23:42;;;;;;;14.10;8.03;;;19.30;99.90;;;;;;5113926;28;20035;-68
2022/08/02 08:26:07;;;;;;;12.17;8.57;;;19.30;99.90;;;;;;5100639;28;20040;-69
2022/08/02 08:28:34;;;;;;;15.33;11.60;;;19.30;99.90;;;;;;5093670;28;20035;-68
2022/08/02 08:31:00;;;;;;;;;;;19.30;99.90;;;;;;5093938;28;20032;-69
2022/08/02 08:33:26;;;;;;;10.88;8.10;;;19.30;99.90;;;;;;5102609;28;20068;-68
2022/08/02 08:35:52;;;;;;;10.87;8.63;;;19.30;99.90;;;;;;5113786;28;20047;-69
2022/08/02 08:38:17;;;;;;;10.70;8.43;;;19.30;99.90;;;;;;5113164;28;20024;-67
2022/08/02 08:40:43;;;;;;;11.13;8.47;;;19.30;99.90;;;;;;5111691;28;20024;-69
2022/08/02 08:43:12;;;;;;;9.75;8.00;;;19.30;99.90;;;;;;5111618;28;20028;-68
2022/08/02 08:45:38;;;;;;;10.90;8.25;;;19.30;99.90;;;;;;5113168;28;20205;-68
2022/08/02 08:48:14;;;;;;;10.82;8.27;;;19.30;99.90;;;;;;5113313;28;20035;-68
2022/08/02 08:50:54;;;;;;;12.27;8.95;;;19.30;99.90;;;;;;5112897;28;20034;-69
2022/08/02 08:53:22;;;;;;;12.70;8.85;;;19.30;99.90;;;;;;5113024;28;20069;-68
2022/08/02 08:55:51;;;;;;;14.48;9.55;;;19.30;99.90;;;;;;5112616;28;20478;-67
2022/08/02 08:58:16;;;;;;;10.48;8.88;;;19.30;99.90;;;;;;5112737;28;20107;-68
2022/08/02 09:00:42;;;;;;;12.07;9.50;;;19.30;99.90;;;;;;5112659;28;20027;-68
2022/08/02 09:03:08;;;;;;;11.47;10.07;;;19.40;99.90;;;;;;5111434;28;20024;-69
2022/08/02 09:05:35;;;;;;;11.35;9.80;;;19.40;99.90;;;;;;5112805;28;20043;-67
2022/08/02 09:08:01;;;;;;;14.13;10.25;;;19.40;99.90;;;;;;5112734;28;20082;-68
2022/08/02 09:10:41;;;;;;;13.63;9.47;;;19.40;99.90;;;;;;5112743;28;20040;-69
2022/08/02 09:13:06;;;;;;;11.73;10.27;;;19.40;99.90;;;;;;5112518;28;20050;-68
2022/08/02 09:15:32;;;;;;;12.90;10.37;;;19.40;99.90;;;;;;5112611;28;20028;-68
2022/08/02 09:17:57;;;;;;;12.17;10.23;;;19.40;99.90;;;;;;5112340;28;20028;-69
2022/08/02 09:20:23;;;;;;;14.00;10.30;;;19.40;99.90;;;;;;5112601;28;20028;-69
2022/08/02 09:23:06;;;;;;;12.97;9.77;;;19.30;99.90;;;;;;5112576;28;20539;-68
2022/08/02 09:25:32;;;;;;;13.05;9.35;;;19.40;99.90;;;;;;5108523;28;20042;-68
2022/08/02 09:27:58;;;;;;;13.63;9.93;;;19.40;99.90;;;;;;5091711;28;20044;-68
2022/08/02 09:30:26;;;;;;;13.75;10.20;;;19.30;99.90;;;;;;5095375;28;20062;-68
2022/08/02 09:32:52;;;;;;;11.38;10.02;;;19.30;99.90;;;;;;5104781;28;20443;-68
2022/08/02 09:35:35;;;;;;;15.95;10.45;;;19.30;99.90;;;;;;5108070;28;20073;-67
2022/08/02 09:38:11;;;;;;;12.82;8.30;;;19.30;99.90;;;;;;5111427;28;20040;-70
2022/08/02 09:40:38;;;;;;;12.85;8.82;;;19.30;99.90;;;;;;5112552;28;20717;-67
2022/08/02 09:43:05;;;;;;;13.90;8.82;;;19.30;99.90;;;;;;5102860;28;20024;-69
2022/08/02 09:45:33;;;;;;;10.57;8.80;;;19.30;99.90;;;;;;5099981;28;20413;-69
2022/08/02 09:48:08;;;;;;;9.88;7.88;;;19.40;99.90;;;;;;5100927;28;20055;-69
2022/08/02 09:50:39;;;;;;;12.80;8.50;;;19.30;99.90;;;;;;5094226;28;20126;-68
2022/08/02 09:53:09;;;;;;;12.35;8.50;;;19.40;99.90;;;;;;5111874;28;20028;-69
2022/08/02 09:55:35;;;;;;;10.35;8.00;;;19.40;99.90;;;;;;5106972;28;20098;-68
2022/08/02 09:58:21;;;;;;;11.40;8.88;;;19.40;99.90;;;;;;5110194;28;20471;-69
2022/08/02 10:00:55;;;;;;;10.35;8.48;;;19.50;99.90;;;;;;5111403;28;20044;-68
2022/08/02 10:03:20;;;;;;;11.43;8.35;;;19.50;99.90;;;;;;5111646;28;20401;-68
2022/08/02 10:05:52;;;;;;;11.33;9.40;;;19.60;99.90;;;;;;5111904;28;20019;-68
2022/08/02 10:08:19;;;;;;;13.48;9.52;;;19.60;99.90;;;;;;5111797;28;20110;-68
2022/08/02 10:10:47;;;;;;;;;;;19.60;99.90;;;;;;5111718;28;20082;-67
2022/08/02 10:13:14;;;;;;;17.20;8.45;;;19.60;99.90;;;;;;5111434;28;19907;-68
2022/08/02 10:15:40;;;;;;;9.32;8.35;;;19.60;99.90;;;;;;5111375;28;20036;-68
2022/08/02 10:18:07;;;;;;;14.57;9.67;;;19.60;99.90;;;;;;5111307;28;20416;-68
2022/08/02 10:20:43;;;;;;;10.65;8.40;;;19.70;99.90;;;;;;5111464;28;20024;-68
2022/08/02 10:23:13;;;;;;;11.57;8.93;;;19.70;99.90;;;;;;5110073;28;20031;-69
2022/08/02 10:25:39;;;;;;;11.85;9.20;;;19.70;99.90;;;;;;5106513;28;20375;-68
2022/08/02 10:28:09;;;;;;;9.90;7.97;;;19.70;99.90;;;;;;5090371;28;20024;-68
2022/08/02 10:30:39;;;;;;;13.95;8.27;;;19.70;99.90;;;;;;5090903;28;20028;-70
2022/08/02 10:33:07;;;;;;;13.85;9.15;;;19.70;99.90;;;;;;5097324;28;20088;-68
2022/08/02 10:35:37;;;;;;;11.52;8.18;;;19.70;99.90;;;;;;5110477;28;20055;-69
2022/08/02 10:38:06;;;;;;;10.80;8.30;;;19.70;99.90;;;;;;5111122;28;20028;-68
2022/08/02 10:40:49;;;;;;;10.35;7.85;;;19.70;99.90;;;;;;5111359;28;20035;-68
2022/08/02 10:43:30;;;;;;;11.90;8.27;;;19.70;99.90;;;;;;5111057;28;20055;-69
2022/08/02 10:46:30;;;;;;;12.85;9.23;;;19.70;99.90;;;;;;5110757;28;20255;-68
2022/08/02 10:49:11;;;;;;;8.13;7.30;;;19.70;99.90;;;;;;5106282;28;20089;-68
2022/08/02 10:51:52;;;;;;;11.38;8.10;;;19.70;99.90;;;;;;5110747;28;20474;-68
2022/08/02 10:54:21;;;;;;;12.85;8.00;;;19.70;99.90;;;;;;5110231;28;20054;-69
2022/08/02 10:56:48;;;;;;;9.98;8.68;;;19.70;99.90;;;;;;5110708;28;20032;-69
2022/08/02 10:59:28;;;;;;;12.90;8.45;;;19.60;99.90;;;;;;5110710;28;20490;-68
2022/08/02 11:02:01;;;;;;;10.95;7.70;;;19.60;99.90;;;;;;5109460;28;20390;-69
2022/08/02 11:04:42;;;;;;;11.25;8.27;;;19.60;99.90;;;;;;5109404;28;20471;-69
2022/08/02 11:07:22;;;;;;;10.93;8.80;;;19.50;99.90;;;;;;5110635;28;20020;-69
2022/08/02 11:09:49;;;;;;;12.23;8.80;;;19.60;99.90;;;;;;5109117;28;20032;-68
2022/08/02 11:12:20;;;;;;;10.15;8.25;;;19.50;99.90;;;;;;5110206;28;20446;-70
2022/08/02 11:15:02;;;;;;;10.80;8.82;;;19.50;99.90;;;;;;5096537;28;20370;-69
2022/08/02 11:17:52;;;;;;;11.60;8.68;;;19.50;99.90;;;;;;5089976;28;20111;-69
2022/08/02 11:20:19;;;;;;;13.52;9.30;;;19.50;99.90;;;;;;5090024;28;20042;-69
2022/08/02 11:22:46;;;;;;;10.30;9.13;;;19.50;99.90;;;;;;5089708;28;20036;-69
2022/08/02 11:25:21;;;;;;;11.07;8.57;;;19.40;99.90;;;;;;5089920;28;20024;-69
2022/08/02 11:27:52;;;;;;;12.73;9.00;;;19.40;99.90;;;;;;5089621;28;20028;-69
2022/08/02 11:30:19;;;;;;;11.07;8.65;;;19.50;99.90;;;;;;5089827;28;20033;-68
2022/08/02 11:32:45;;;;;;;;;;;19.40;99.90;;;;;;5093996;28;20462;-69
2022/08/02 11:35:11;;;;;;;10.13;7.22;;;19.40;99.90;;;;;;5110183;28;19977;-69
2022/08/02 11:37:42;;;;;;;9.83;6.37;;;19.40;99.90;;;;;;5110064;28;20397;-69
2022/08/02 11:40:09;;;;;;;9.60;5.97;;;19.30;99.90;;;;;;5113106;28;20032;-68
2022/08/02 11:42:37;;;;;;;8.93;5.93;;;19.20;99.90;;;;;;5114281;28;20424;-68
2022/08/02 11:45:05;;;;;;;6.53;4.97;;;19.20;99.90;;;;;;5112929;28;20028;-69
2022/08/02 11:47:30;;;;;;;9.02;4.70;;;19.10;99.90;;;;;;5114214;28;20031;-69
2022/08/02 11:50:06;;;;;;;8.63;5.43;;;19.10;99.90;;;;;;5114020;28;20028;-69
2022/08/02 11:52:33;;;;;;;9.30;5.50;;;19.10;99.90;;;;;;5113745;28;20348;-68
2022/08/02 11:54:59;;;;;;;6.88;5.10;;;19.10;99.90;;;;;;5112060;28;20052;-69
2022/08/02 11:57:25;;;;;;;8.23;6.47;;;19.00;99.90;;;;;;5112340;28;20418;-69
2022/08/02 11:59:54;;;;;;;7.60;5.90;;;19.00;99.90;;;;;;5112591;28;20272;-68
2022/08/02 12:02:24;;;;;;;7.05;5.68;;;19.00;99.90;;;;;;5112266;28;20027;-68
2022/08/02 12:04:56;;;;;;;7.47;5.50;;;19.00;99.90;;;;;;5112274;28;20027;-68
2022/08/02 12:07:28;;;;;;;7.55;5.68;;;18.90;99.90;;;;;;5112273;28;20059;-68
2022/08/02 12:10:03;;;;;;;8.02;6.25;;;18.90;99.90;;;;;;5113481;28;20057;-68
2022/08/02 12:12:29;;;;;;;9.05;6.38;;;18.90;99.90;;;;;;5113966;28;20024;-68
2022/08/02 12:14:54;;;;;;;6.40;5.80;;;18.90;99.90;;;;;;5113715;28;20453;-70
2022/08/02 12:20:10;;;;;;;8.02;6.00;;;18.90;99.90;;;;;;5113713;28;20068;-69
2022/08/02 12:22:37;;;;;;;7.43;5.45;;;19.00;99.90;;;;;;5113568;28;20096;-69
2022/08/02 12:25:23;;;;;;;7.45;5.72;;;19.10;99.90;;;;;;5113537;28;20047;-68
2022/08/02 12:27:48;;;;;;;8.82;6.53;;;19.10;99.90;;;;;;5092815;28;20043;-69
2022/08/02 12:30:17;;;;;;;7.77;6.80;;;19.10;99.90;;;;;;5093014;28;20247;-69
2022/08/02 12:32:43;;;;;;;7.78;6.63;;;19.20;99.90;;;;;;5096235;28;20039;-69
2022/08/02 12:35:14;;;;;;;7.47;6.47;;;19.30;99.90;;;;;;5113265;28;20039;-69
2022/08/02 12:37:42;;;;;;;9.98;6.53;;;19.30;99.90;;;;;;5113102;28;20508;-69
2022/08/02 12:40:31;;;;;;;9.38;7.28;;;19.40;99.90;;;;;;5113499;28;20028;-68
2022/08/02 12:43:03;;;;;;;9.40;7.35;;;19.40;99.90;;;;;;5113155;28;20027;-69
2022/08/02 12:45:31;;;;;;;10.00;7.93;;;19.50;99.90;;;;;;5113388;28;20076;-69
2022/08/02 12:47:59;;;;;;;8.30;7.40;;;19.50;99.90;;;;;;5111997;28;20376;-69
2022/08/02 12:50:31;;;;;;;11.07;8.15;;;19.50;99.90;;;;;;5112867;28;20046;-69
2022/08/02 12:53:09;;;;;;;10.57;8.20;;;19.50;99.90;;;;;;5094370;28;20032;-69
2022/08/02 12:55:39;;;;;;;9.50;8.07;;;19.50;99.90;;;;;;5111652;28;20044;-69
2022/08/02 12:58:05;;;;;;;10.80;8.15;;;19.50;99.90;;;;;;5113423;28;20035;-69